sensor_id;sensor_type;location;lat;lon;timestamp;temperature;humidity
5346;DHT22;2695;49.444;11.054;2022-07-29T00:01:40;22.70;54.40
5346;DHT22;2695;49.444;11.054;2022-07-29T00:04:10;22.70;54.40
5346;DHT22;2695;49.444;11.054;2022-07-29T00:06:38;22.70;54.40
5346;DHT22;2695;49.444;11.054;2022-07-29T00:09:06;22.60;54.30
5346;DHT22;2695;49.444;11.054;2022-07-29T00:11:34;22.60;54.20
5346;DHT22;2695;49.444;11.054;2022-07-29T00:14:02;22.60;54.20
5346;DHT22;2695;49.444;11.054;2022-07-29T00:16:30;22.50;54.10
5346;DHT22;2695;49.444;11.054;2022-07-29T00:18:58;22.40;54.10
5346;DHT22;2695;49.444;11.054;2022-07-29T00:21:29;22.50;54.40
5346;DHT22;2695;49.444;11.054;2022-07-29T00:23:57;22.50;54.40
5346;DHT22;2695;49.444;11.054;2022-07-29T00:26:25;22.50;54.20
5346;DHT22;2695;49.444;11.054;2022-07-29T00:28:58;22.50;54.20
5346;DHT22;2695;49.444;11.054;2022-07-29T00:31:46;22.60;54.20
5346;DHT22;2695;49.444;11.054;2022-07-29T00:34:14;22.60;54.10
5346;DHT22;2695;49.444;11.054;2022-07-29T00:36:57;22.60;54.00
5346;DHT22;2695;49.444;11.054;2022-07-29T00:39:25;22.70;54.10
5346;DHT22;2695;49.444;11.054;2022-07-29T00:41:54;22.70;54.00
5346;DHT22;2695;49.444;11.054;2022-07-29T00:44:22;22.70;53.90
5346;DHT22;2695;49.444;11.054;2022-07-29T00:46:50;22.70;53.90
5346;DHT22;2695;49.444;11.054;2022-07-29T00:49:18;22.70;53.90
5346;DHT22;2695;49.444;11.054;2022-07-29T00:51:46;22.70;53.90
5346;DHT22;2695;49.444;11.054;2022-07-29T00:54:16;22.60;53.90
5346;DHT22;2695;49.444;11.054;2022-07-29T00:56:45;22.70;54.00
5346;DHT22;2695;49.444;11.054;2022-07-29T00:59:12;22.60;53.90
5346;DHT22;2695;49.444;11.054;2022-07-29T01:01:40;22.70;54.00
5346;DHT22;2695;49.444;11.054;2022-07-29T01:04:08;22.70;53.90
5346;DHT22;2695;49.444;11.054;2022-07-29T01:06:36;22.60;53.90
5346;DHT22;2695;49.444;11.054;2022-07-29T01:09:05;22.70;54.00
5346;DHT22;2695;49.444;11.054;2022-07-29T01:11:34;22.70;54.00
5346;DHT22;2695;49.444;11.054;2022-07-29T01:14:03;22.60;54.20
5346;DHT22;2695;49.444;11.054;2022-07-29T01:16:35;22.50;54.60
5346;DHT22;2695;49.444;11.054;2022-07-29T01:19:13;22.70;54.80
5346;DHT22;2695;49.444;11.054;2022-07-29T01:21:50;22.60;54.80
5346;DHT22;2695;49.444;11.054;2022-07-29T01:24:44;22.60;55.00
5346;DHT22;2695;49.444;11.054;2022-07-29T01:27:32;22.60;55.20
5346;DHT22;2695;49.444;11.054;2022-07-29T01:30:06;22.70;55.50
5346;DHT22;2695;49.444;11.054;2022-07-29T01:32:37;22.70;55.50
5346;DHT22;2695;49.444;11.054;2022-07-29T01:35:10;22.60;55.60
5346;DHT22;2695;49.444;11.054;2022-07-29T01:37:45;22.60;55.90
5346;DHT22;2695;49.444;11.054;2022-07-29T01:40:20;22.60;55.80
5346;DHT22;2695;49.444;11.054;2022-07-29T01:42:52;22.60;55.70
5346;DHT22;2695;49.444;11.054;2022-07-29T01:45:26;22.60;55.70
5346;DHT22;2695;49.444;11.054;2022-07-29T01:47:59;22.50;55.70
5346;DHT22;2695;49.444;11.054;2022-07-29T01:50:33;22.50;55.60
5346;DHT22;2695;49.444;11.054;2022-07-29T01:53:04;22.40;55.90
5346;DHT22;2695;49.444;11.054;2022-07-29T01:55:36;22.40;56.10
5346;DHT22;2695;49.444;11.054;2022-07-29T01:58:07;22.40;56.00
5346;DHT22;2695;49.444;11.054;2022-07-29T02:00:37;22.40;55.90
5346;DHT22;2695;49.444;11.054;2022-07-29T02:03:11;22.40;56.00
5346;DHT22;2695;49.444;11.054;2022-07-29T02:05:41;22.40;56.70
5346;DHT22;2695;49.444;11.054;2022-07-29T02:08:10;22.40;56.60
5346;DHT22;2695;49.444;11.054;2022-07-29T02:10:40;22.40;56.40
5346;DHT22;2695;49.444;11.054;2022-07-29T02:13:11;22.40;56.40
5346;DHT22;2695;49.444;11.054;2022-07-29T02:15:42;22.40;56.10
5346;DHT22;2695;49.444;11.054;2022-07-29T02:18:15;22.30;55.90
5346;DHT22;2695;49.444;11.054;2022-07-29T02:20:46;22.30;55.90
5346;DHT22;2695;49.444;11.054;2022-07-29T02:23:17;22.40;56.30
5346;DHT22;2695;49.444;11.054;2022-07-29T02:25:48;22.30;56.40
5346;DHT22;2695;49.444;11.054;2022-07-29T02:28:19;22.40;56.10
5346;DHT22;2695;49.444;11.054;2022-07-29T02:30:51;22.40;55.90
5346;DHT22;2695;49.444;11.054;2022-07-29T02:33:21;22.30;55.70
5346;DHT22;2695;49.444;11.054;2022-07-29T02:35:51;22.40;55.90
5346;DHT22;2695;49.444;11.054;2022-07-29T02:38:20;22.30;56.10
5346;DHT22;2695;49.444;11.054;2022-07-29T02:41:10;22.30;56.20
5346;DHT22;2695;49.444;11.054;2022-07-29T02:43:39;22.30;56.00
5346;DHT22;2695;49.444;11.054;2022-07-29T02:46:14;22.30;55.90
5346;DHT22;2695;49.444;11.054;2022-07-29T02:48:58;22.20;55.80
5346;DHT22;2695;49.444;11.054;2022-07-29T02:51:32;22.10;55.60
5346;DHT22;2695;49.444;11.054;2022-07-29T02:54:11;22.20;55.80
5346;DHT22;2695;49.444;11.054;2022-07-29T02:56:44;22.10;55.80
5346;DHT22;2695;49.444;11.054;2022-07-29T02:59:15;22.10;56.00
5346;DHT22;2695;49.444;11.054;2022-07-29T03:01:49;22.10;56.10
5346;DHT22;2695;49.444;11.054;2022-07-29T03:04:18;22.20;56.30
5346;DHT22;2695;49.444;11.054;2022-07-29T03:06:48;22.00;56.20
5346;DHT22;2695;49.444;11.054;2022-07-29T03:09:17;22.00;56.10
5346;DHT22;2695;49.444;11.054;2022-07-29T03:11:46;22.00;56.10
5346;DHT22;2695;49.444;11.054;2022-07-29T03:14:17;21.90;56.00
5346;DHT22;2695;49.444;11.054;2022-07-29T03:16:49;21.90;55.80
5346;DHT22;2695;49.444;11.054;2022-07-29T03:19:18;21.90;55.90
5346;DHT22;2695;49.444;11.054;2022-07-29T03:21:46;21.90;55.80
5346;DHT22;2695;49.444;11.054;2022-07-29T03:24:28;21.80;55.80
5346;DHT22;2695;49.444;11.054;2022-07-29T03:26:57;21.80;55.90
5346;DHT22;2695;49.444;11.054;2022-07-29T03:29:26;21.80;55.80
5346;DHT22;2695;49.444;11.054;2022-07-29T03:32:02;21.80;55.90
5346;DHT22;2695;49.444;11.054;2022-07-29T03:34:34;21.80;55.80
5346;DHT22;2695;49.444;11.054;2022-07-29T03:37:02;21.80;55.80
5346;DHT22;2695;49.444;11.054;2022-07-29T03:39:33;21.80;55.90
5346;DHT22;2695;49.444;11.054;2022-07-29T03:42:05;21.80;55.90
5346;DHT22;2695;49.444;11.054;2022-07-29T03:44:35;21.80;56.00
5346;DHT22;2695;49.444;11.054;2022-07-29T03:47:06;21.90;56.00
5346;DHT22;2695;49.444;11.054;2022-07-29T03:49:36;21.80;55.70
5346;DHT22;2695;49.444;11.054;2022-07-29T03:52:05;21.70;55.50
5346;DHT22;2695;49.444;11.054;2022-07-29T03:54:33;21.60;55.60
5346;DHT22;2695;49.444;11.054;2022-07-29T03:57:02;21.50;55.90
5346;DHT22;2695;49.444;11.054;2022-07-29T03:59:32;21.40;56.10
5346;DHT22;2695;49.444;11.054;2022-07-29T04:02:03;21.30;56.50
5346;DHT22;2695;49.444;11.054;2022-07-29T04:04:34;21.30;56.80
5346;DHT22;2695;49.444;11.054;2022-07-29T04:07:02;21.30;56.80
5346;DHT22;2695;49.444;11.054;2022-07-29T04:09:31;21.20;56.80
5346;DHT22;2695;49.444;11.054;2022-07-29T04:11:59;21.20;57.00
5346;DHT22;2695;49.444;11.054;2022-07-29T04:14:30;21.20;56.90
5346;DHT22;2695;49.444;11.054;2022-07-29T04:16:58;21.10;57.00
5346;DHT22;2695;49.444;11.054;2022-07-29T04:19:27;21.10;56.90
5346;DHT22;2695;49.444;11.054;2022-07-29T04:21:56;21.10;56.90
5346;DHT22;2695;49.444;11.054;2022-07-29T04:24:25;21.00;57.10
5346;DHT22;2695;49.444;11.054;2022-07-29T04:26:53;21.00;57.10
5346;DHT22;2695;49.444;11.054;2022-07-29T04:29:22;21.10;57.20
5346;DHT22;2695;49.444;11.054;2022-07-29T04:31:50;21.10;57.20
5346;DHT22;2695;49.444;11.054;2022-07-29T04:34:18;21.00;57.10
5346;DHT22;2695;49.444;11.054;2022-07-29T04:36:46;21.20;57.30
5346;DHT22;2695;49.444;11.054;2022-07-29T04:39:16;21.20;57.00
5346;DHT22;2695;49.444;11.054;2022-07-29T04:41:49;21.30;57.00
5346;DHT22;2695;49.444;11.054;2022-07-29T04:44:20;21.10;56.90
5346;DHT22;2695;49.444;11.054;2022-07-29T04:46:55;21.10;57.10
5346;DHT22;2695;49.444;11.054;2022-07-29T04:49:23;21.10;57.30
5346;DHT22;2695;49.444;11.054;2022-07-29T04:51:51;21.20;57.50
5346;DHT22;2695;49.444;11.054;2022-07-29T04:54:21;21.00;57.30
5346;DHT22;2695;49.444;11.054;2022-07-29T04:56:50;21.10;57.50
5346;DHT22;2695;49.444;11.054;2022-07-29T04:59:18;21.10;57.40
5346;DHT22;2695;49.444;11.054;2022-07-29T05:01:46;21.20;57.30
5346;DHT22;2695;49.444;11.054;2022-07-29T05:04:14;21.30;57.20
5346;DHT22;2695;49.444;11.054;2022-07-29T05:06:45;21.40;57.10
5346;DHT22;2695;49.444;11.054;2022-07-29T05:09:13;21.60;56.80
5346;DHT22;2695;49.444;11.054;2022-07-29T05:11:42;21.80;56.50
5346;DHT22;2695;49.444;11.054;2022-07-29T05:14:13;22.00;56.10
5346;DHT22;2695;49.444;11.054;2022-07-29T05:16:41;22.30;55.90
5346;DHT22;2695;49.444;11.054;2022-07-29T05:19:09;23.30;54.50
5346;DHT22;2695;49.444;11.054;2022-07-29T05:21:40;24.80;52.00
5346;DHT22;2695;49.444;11.054;2022-07-29T05:24:08;26.10;49.50
5346;DHT22;2695;49.444;11.054;2022-07-29T05:26:36;27.40;47.10
5346;DHT22;2695;49.444;11.054;2022-07-29T05:29:09;28.90;44.60
5346;DHT22;2695;49.444;11.054;2022-07-29T05:31:59;30.00;42.20
5346;DHT22;2695;49.444;11.054;2022-07-29T05:34:27;30.60;41.50
5346;DHT22;2695;49.444;11.054;2022-07-29T05:36:54;31.40;40.00
5346;DHT22;2695;49.444;11.054;2022-07-29T05:39:26;32.10;38.80
5346;DHT22;2695;49.444;11.054;2022-07-29T05:42:13;32.80;37.30
5346;DHT22;2695;49.444;11.054;2022-07-29T05:44:43;33.40;36.10
5346;DHT22;2695;49.444;11.054;2022-07-29T05:47:11;33.70;35.50
5346;DHT22;2695;49.444;11.054;2022-07-29T05:49:39;34.10;35.00
5346;DHT22;2695;49.444;11.054;2022-07-29T05:52:07;34.60;34.40
5346;DHT22;2695;49.444;11.054;2022-07-29T05:54:35;35.10;33.40
5346;DHT22;2695;49.444;11.054;2022-07-29T05:57:03;35.40;33.60
5346;DHT22;2695;49.444;11.054;2022-07-29T05:59:35;35.90;32.30
5346;DHT22;2695;49.444;11.054;2022-07-29T06:02:04;35.80;32.20
5346;DHT22;2695;49.444;11.054;2022-07-29T06:04:33;36.00;32.00
5346;DHT22;2695;49.444;11.054;2022-07-29T06:07:01;36.30;31.90
5346;DHT22;2695;49.444;11.054;2022-07-29T06:09:29;36.60;31.60
5346;DHT22;2695;49.444;11.054;2022-07-29T06:11:57;36.60;31.60
5346;DHT22;2695;49.444;11.054;2022-07-29T06:14:25;36.60;31.80
5346;DHT22;2695;49.444;11.054;2022-07-29T06:16:55;37.00;31.30
5346;DHT22;2695;49.444;11.054;2022-07-29T06:19:29;37.40;30.60
5346;DHT22;2695;49.444;11.054;2022-07-29T06:21:57;37.40;30.70
5346;DHT22;2695;49.444;11.054;2022-07-29T06:24:25;37.70;30.30
5346;DHT22;2695;49.444;11.054;2022-07-29T06:26:53;37.80;29.90
5346;DHT22;2695;49.444;11.054;2022-07-29T06:29:22;37.80;30.00
5346;DHT22;2695;49.444;11.054;2022-07-29T06:31:51;37.90;29.90
5346;DHT22;2695;49.444;11.054;2022-07-29T06:34:19;37.60;30.00
5346;DHT22;2695;49.444;11.054;2022-07-29T06:36:49;37.70;30.10
5346;DHT22;2695;49.444;11.054;2022-07-29T06:39:20;38.10;29.90
5346;DHT22;2695;49.444;11.054;2022-07-29T06:41:55;38.10;29.90
5346;DHT22;2695;49.444;11.054;2022-07-29T06:44:23;38.40;29.70
5346;DHT22;2695;49.444;11.054;2022-07-29T06:46:52;38.70;29.20
5346;DHT22;2695;49.444;11.054;2022-07-29T06:49:21;38.90;29.20
5346;DHT22;2695;49.444;11.054;2022-07-29T06:51:52;39.00;29.00
5346;DHT22;2695;49.444;11.054;2022-07-29T06:54:20;37.90;29.80
5346;DHT22;2695;49.444;11.054;2022-07-29T06:56:49;37.30;30.90
5346;DHT22;2695;49.444;11.054;2022-07-29T06:59:17;37.60;30.80
5346;DHT22;2695;49.444;11.054;2022-07-29T07:01:50;38.40;30.50
5346;DHT22;2695;49.444;11.054;2022-07-29T07:04:18;39.50;29.20
5346;DHT22;2695;49.444;11.054;2022-07-29T07:06:47;40.20;28.50
5346;DHT22;2695;49.444;11.054;2022-07-29T07:09:16;40.20;28.70
5346;DHT22;2695;49.444;11.054;2022-07-29T07:11:44;39.80;28.80
5346;DHT22;2695;49.444;11.054;2022-07-29T07:14:15;39.80;28.90
5346;DHT22;2695;49.444;11.054;2022-07-29T07:16:43;39.60;28.80
5346;DHT22;2695;49.444;11.054;2022-07-29T07:19:11;38.70;30.00
5346;DHT22;2695;49.444;11.054;2022-07-29T07:21:39;37.50;30.80
5346;DHT22;2695;49.444;11.054;2022-07-29T07:24:08;36.90;32.00
5346;DHT22;2695;49.444;11.054;2022-07-29T07:26:37;36.60;32.40
5346;DHT22;2695;49.444;11.054;2022-07-29T07:29:06;36.60;32.90
5346;DHT22;2695;49.444;11.054;2022-07-29T07:31:35;37.30;32.00
5346;DHT22;2695;49.444;11.054;2022-07-29T07:34:04;37.60;31.40
5346;DHT22;2695;49.444;11.054;2022-07-29T07:36:32;37.80;31.00
5346;DHT22;2695;49.444;11.054;2022-07-29T07:39:00;37.90;31.40
5346;DHT22;2695;49.444;11.054;2022-07-29T07:41:29;37.50;31.90
5346;DHT22;2695;49.444;11.054;2022-07-29T07:43:59;37.50;32.90
5346;DHT22;2695;49.444;11.054;2022-07-29T07:46:27;38.40;31.30
5346;DHT22;2695;49.444;11.054;2022-07-29T07:48:55;39.70;30.00
5346;DHT22;2695;49.444;11.054;2022-07-29T07:51:23;40.90;28.60
5346;DHT22;2695;49.444;11.054;2022-07-29T07:53:51;40.90;28.30
5346;DHT22;2695;49.444;11.054;2022-07-29T07:56:19;39.90;29.20
5346;DHT22;2695;49.444;11.054;2022-07-29T07:58:48;38.70;30.00
5346;DHT22;2695;49.444;11.054;2022-07-29T08:01:17;36.90;31.80
5346;DHT22;2695;49.444;11.054;2022-07-29T08:03:48;35.50;34.10
5346;DHT22;2695;49.444;11.054;2022-07-29T08:06:17;34.40;35.90
5346;DHT22;2695;49.444;11.054;2022-07-29T08:08:45;33.90;36.60
5346;DHT22;2695;49.444;11.054;2022-07-29T08:11:13;33.60;37.60
5346;DHT22;2695;49.444;11.054;2022-07-29T08:13:41;34.60;36.70
5346;DHT22;2695;49.444;11.054;2022-07-29T08:16:09;36.20;34.20
5346;DHT22;2695;49.444;11.054;2022-07-29T08:18:44;37.30;32.60
5346;DHT22;2695;49.444;11.054;2022-07-29T08:21:13;36.90;32.50
5346;DHT22;2695;49.444;11.054;2022-07-29T08:23:48;36.20;34.40
5346;DHT22;2695;49.444;11.054;2022-07-29T08:26:27;35.90;34.60
5346;DHT22;2695;49.444;11.054;2022-07-29T08:28:55;37.20;33.20
5346;DHT22;2695;49.444;11.054;2022-07-29T08:31:24;38.50;31.40
5346;DHT22;2695;49.444;11.054;2022-07-29T08:33:54;38.90;30.80
5346;DHT22;2695;49.444;11.054;2022-07-29T08:36:27;39.30;30.20
5346;DHT22;2695;49.444;11.054;2022-07-29T08:38:58;40.20;29.60
5346;DHT22;2695;49.444;11.054;2022-07-29T08:41:29;41.40;28.60
5346;DHT22;2695;49.444;11.054;2022-07-29T08:43:58;42.10;27.70
5346;DHT22;2695;49.444;11.054;2022-07-29T08:46:29;42.80;27.20
5346;DHT22;2695;49.444;11.054;2022-07-29T08:48:59;43.50;26.80
5346;DHT22;2695;49.444;11.054;2022-07-29T08:51:27;44.30;26.00
5346;DHT22;2695;49.444;11.054;2022-07-29T08:53:56;44.60;25.40
5346;DHT22;2695;49.444;11.054;2022-07-29T08:56:24;44.90;25.10
5346;DHT22;2695;49.444;11.054;2022-07-29T08:58:52;44.90;24.90
5346;DHT22;2695;49.444;11.054;2022-07-29T09:01:23;45.60;24.80
5346;DHT22;2695;49.444;11.054;2022-07-29T09:04:11;45.50;24.70
5346;DHT22;2695;49.444;11.054;2022-07-29T09:06:43;45.60;24.50
5346;DHT22;2695;49.444;11.054;2022-07-29T09:09:12;45.70;24.20
5346;DHT22;2695;49.444;11.054;2022-07-29T09:11:41;45.90;24.30
5346;DHT22;2695;49.444;11.054;2022-07-29T09:14:11;46.70;23.70
5346;DHT22;2695;49.444;11.054;2022-07-29T09:17:01;47.10;23.40
5346;DHT22;2695;49.444;11.054;2022-07-29T09:19:31;46.90;23.30
5346;DHT22;2695;49.444;11.054;2022-07-29T09:22:03;46.70;23.40
5346;DHT22;2695;49.444;11.054;2022-07-29T09:24:43;46.70;23.10
5346;DHT22;2695;49.444;11.054;2022-07-29T09:27:21;46.90;23.20
5346;DHT22;2695;49.444;11.054;2022-07-29T09:29:57;47.30;22.80
5346;DHT22;2695;49.444;11.054;2022-07-29T09:32:25;47.10;22.60
5346;DHT22;2695;49.444;11.054;2022-07-29T09:35:16;46.40;23.20
5346;DHT22;2695;49.444;11.054;2022-07-29T09:37:45;45.20;24.00
5346;DHT22;2695;49.444;11.054;2022-07-29T09:40:15;44.70;24.40
5346;DHT22;2695;49.444;11.054;2022-07-29T09:42:46;44.10;25.20
5346;DHT22;2695;49.444;11.054;2022-07-29T09:45:28;44.60;24.80
5346;DHT22;2695;49.444;11.054;2022-07-29T09:47:57;45.00;24.50
5346;DHT22;2695;49.444;11.054;2022-07-29T09:50:39;44.70;24.60
5346;DHT22;2695;49.444;11.054;2022-07-29T09:53:10;43.40;25.30
5346;DHT22;2695;49.444;11.054;2022-07-29T09:55:56;42.20;26.10
5346;DHT22;2695;49.444;11.054;2022-07-29T09:58:26;41.00;27.10
5346;DHT22;2695;49.444;11.054;2022-07-29T10:00:55;39.80;28.40
5346;DHT22;2695;49.444;11.054;2022-07-29T10:03:23;39.00;28.80
5346;DHT22;2695;49.444;11.054;2022-07-29T10:06:14;38.70;29.10
5346;DHT22;2695;49.444;11.054;2022-07-29T10:08:43;39.10;29.00
5346;DHT22;2695;49.444;11.054;2022-07-29T10:11:13;39.80;28.50
5346;DHT22;2695;49.444;11.054;2022-07-29T10:13:46;40.00;28.40
5346;DHT22;2695;49.444;11.054;2022-07-29T10:16:14;39.40;28.80
5346;DHT22;2695;49.444;11.054;2022-07-29T10:18:43;38.40;29.90
5346;DHT22;2695;49.444;11.054;2022-07-29T10:21:14;38.20;30.40
5346;DHT22;2695;49.444;11.054;2022-07-29T10:24:02;38.40;30.00
5346;DHT22;2695;49.444;11.054;2022-07-29T10:26:30;39.00;29.40
5346;DHT22;2695;49.444;11.054;2022-07-29T10:28:58;39.30;29.40
5346;DHT22;2695;49.444;11.054;2022-07-29T10:31:31;39.80;28.90
5346;DHT22;2695;49.444;11.054;2022-07-29T10:34:06;40.00;28.70
5346;DHT22;2695;49.444;11.054;2022-07-29T10:36:45;40.00;28.90
5346;DHT22;2695;49.444;11.054;2022-07-29T10:39:27;40.10;29.20
5346;DHT22;2695;49.444;11.054;2022-07-29T10:42:18;41.00;28.50
5346;DHT22;2695;49.444;11.054;2022-07-29T10:45:00;41.40;28.10
5346;DHT22;2695;49.444;11.054;2022-07-29T10:47:30;41.80;27.60
5346;DHT22;2695;49.444;11.054;2022-07-29T10:50:02;41.70;27.60
5346;DHT22;2695;49.444;11.054;2022-07-29T10:52:55;41.80;27.80
5346;DHT22;2695;49.444;11.054;2022-07-29T10:55:31;42.40;27.30
5346;DHT22;2695;49.444;11.054;2022-07-29T10:58:12;42.50;26.80
5346;DHT22;2695;49.444;11.054;2022-07-29T11:00:41;42.20;27.20
5346;DHT22;2695;49.444;11.054;2022-07-29T11:03:42;41.60;28.10
5346;DHT22;2695;49.444;11.054;2022-07-29T11:06:15;41.20;28.70
5346;DHT22;2695;49.444;11.054;2022-07-29T11:09:19;41.10;28.80
5346;DHT22;2695;49.444;11.054;2022-07-29T11:12:03;41.00;28.40
5346;DHT22;2695;49.444;11.054;2022-07-29T11:15:05;40.60;29.00
5346;DHT22;2695;49.444;11.054;2022-07-29T11:18:03;40.10;29.30
5346;DHT22;2695;49.444;11.054;2022-07-29T11:20:34;39.50;29.70
5346;DHT22;2695;49.444;11.054;2022-07-29T11:23:27;39.10;30.20
5346;DHT22;2695;49.444;11.054;2022-07-29T11:26:18;38.60;30.70
5346;DHT22;2695;49.444;11.054;2022-07-29T11:28:54;37.70;31.70
5346;DHT22;2695;49.444;11.054;2022-07-29T11:31:36;37.60;32.60
5346;DHT22;2695;49.444;11.054;2022-07-29T11:34:24;37.20;32.50
5346;DHT22;2695;49.444;11.054;2022-07-29T11:37:15;36.80;33.20
5346;DHT22;2695;49.444;11.054;2022-07-29T11:39:46;36.60;33.80
5346;DHT22;2695;49.444;11.054;2022-07-29T11:42:38;36.40;33.90
5346;DHT22;2695;49.444;11.054;2022-07-29T11:45:11;36.50;34.00
5346;DHT22;2695;49.444;11.054;2022-07-29T11:48:00;36.70;33.90
5346;DHT22;2695;49.444;11.054;2022-07-29T11:50:49;36.80;34.60
5346;DHT22;2695;49.444;11.054;2022-07-29T11:53:17;37.00;34.10
5346;DHT22;2695;49.444;11.054;2022-07-29T11:55:47;37.20;33.30
5346;DHT22;2695;49.444;11.054;2022-07-29T11:58:25;37.40;33.10
5346;DHT22;2695;49.444;11.054;2022-07-29T12:00:55;37.60;32.40
5346;DHT22;2695;49.444;11.054;2022-07-29T12:03:30;37.70;33.00
5346;DHT22;2695;49.444;11.054;2022-07-29T12:06:03;37.80;32.60
5346;DHT22;2695;49.444;11.054;2022-07-29T12:08:40;38.10;32.70
5346;DHT22;2695;49.444;11.054;2022-07-29T12:11:17;38.10;32.40
5346;DHT22;2695;49.444;11.054;2022-07-29T12:13:48;38.00;32.60
5346;DHT22;2695;49.444;11.054;2022-07-29T12:16:17;37.90;33.00
5346;DHT22;2695;49.444;11.054;2022-07-29T12:18:59;37.90;32.70
5346;DHT22;2695;49.444;11.054;2022-07-29T12:21:28;37.90;32.20
5346;DHT22;2695;49.444;11.054;2022-07-29T12:23:57;37.80;32.40
5346;DHT22;2695;49.444;11.054;2022-07-29T12:26:35;37.80;32.70
5346;DHT22;2695;49.444;11.054;2022-07-29T12:29:07;38.00;32.50
5346;DHT22;2695;49.444;11.054;2022-07-29T12:31:59;38.00;32.40
5346;DHT22;2695;49.444;11.054;2022-07-29T12:34:29;38.20;32.10
5346;DHT22;2695;49.444;11.054;2022-07-29T12:36:57;38.00;32.00
5346;DHT22;2695;49.444;11.054;2022-07-29T12:39:26;37.70;32.60
5346;DHT22;2695;49.444;11.054;2022-07-29T12:41:54;37.50;33.50
5346;DHT22;2695;49.444;11.054;2022-07-29T12:44:48;36.90;34.20
5346;DHT22;2695;49.444;11.054;2022-07-29T12:47:17;36.20;34.80
5346;DHT22;2695;49.444;11.054;2022-07-29T12:49:46;35.80;36.30
5346;DHT22;2695;49.444;11.054;2022-07-29T12:52:24;35.40;36.30
5346;DHT22;2695;49.444;11.054;2022-07-29T12:54:52;35.50;36.20
5346;DHT22;2695;49.444;11.054;2022-07-29T12:57:20;35.50;36.10
5346;DHT22;2695;49.444;11.054;2022-07-29T13:00:01;35.30;35.80
5346;DHT22;2695;49.444;11.054;2022-07-29T13:02:29;35.20;36.10
5346;DHT22;2695;49.444;11.054;2022-07-29T13:04:59;34.80;36.40
5346;DHT22;2695;49.444;11.054;2022-07-29T13:07:29;34.70;36.80
5346;DHT22;2695;49.444;11.054;2022-07-29T13:10:18;34.60;36.50
5346;DHT22;2695;49.444;11.054;2022-07-29T13:13:07;34.40;37.00
5346;DHT22;2695;49.444;11.054;2022-07-29T13:15:39;34.30;37.30
5346;DHT22;2695;49.444;11.054;2022-07-29T13:18:28;34.20;37.90
5346;DHT22;2695;49.444;11.054;2022-07-29T13:20:57;34.30;37.00
5346;DHT22;2695;49.444;11.054;2022-07-29T13:23:37;34.30;37.20
5346;DHT22;2695;49.444;11.054;2022-07-29T13:26:06;34.10;37.20
5346;DHT22;2695;49.444;11.054;2022-07-29T13:28:34;33.90;37.20
5346;DHT22;2695;49.444;11.054;2022-07-29T13:31:04;33.80;37.30
5346;DHT22;2695;49.444;11.054;2022-07-29T13:33:32;33.70;37.50
5346;DHT22;2695;49.444;11.054;2022-07-29T13:36:00;33.40;34.80
5346;DHT22;2695;49.444;11.054;2022-07-29T13:38:28;32.90;35.60
5346;DHT22;2695;49.444;11.054;2022-07-29T13:40:57;32.50;36.80
5346;DHT22;2695;49.444;11.054;2022-07-29T13:43:25;32.00;41.20
5346;DHT22;2695;49.444;11.054;2022-07-29T13:45:53;31.30;43.80
5346;DHT22;2695;49.444;11.054;2022-07-29T13:48:22;30.70;44.30
5346;DHT22;2695;49.444;11.054;2022-07-29T13:50:50;30.20;44.80
5346;DHT22;2695;49.444;11.054;2022-07-29T13:53:18;29.80;46.10
5346;DHT22;2695;49.444;11.054;2022-07-29T13:55:53;29.50;46.60
5346;DHT22;2695;49.444;11.054;2022-07-29T13:58:21;29.30;46.70
5346;DHT22;2695;49.444;11.054;2022-07-29T14:00:49;29.10;46.70
5346;DHT22;2695;49.444;11.054;2022-07-29T14:03:17;29.00;46.80
5346;DHT22;2695;49.444;11.054;2022-07-29T14:05:46;29.00;46.20
5346;DHT22;2695;49.444;11.054;2022-07-29T14:08:14;28.90;46.60
5346;DHT22;2695;49.444;11.054;2022-07-29T14:10:42;28.80;48.10
5346;DHT22;2695;49.444;11.054;2022-07-29T14:13:10;28.70;49.80
5346;DHT22;2695;49.444;11.054;2022-07-29T14:15:50;28.50;49.20
5346;DHT22;2695;49.444;11.054;2022-07-29T14:18:18;28.60;50.30
5346;DHT22;2695;49.444;11.054;2022-07-29T14:20:47;28.70;48.60
5346;DHT22;2695;49.444;11.054;2022-07-29T14:23:16;28.70;49.50
5346;DHT22;2695;49.444;11.054;2022-07-29T14:25:46;28.70;51.70
5346;DHT22;2695;49.444;11.054;2022-07-29T14:28:15;28.70;53.40
5346;DHT22;2695;49.444;11.054;2022-07-29T14:30:43;28.60;54.10
5346;DHT22;2695;49.444;11.054;2022-07-29T14:33:11;28.50;54.90
5346;DHT22;2695;49.444;11.054;2022-07-29T14:35:40;28.40;55.80
5346;DHT22;2695;49.444;11.054;2022-07-29T14:38:09;28.30;56.70
5346;DHT22;2695;49.444;11.054;2022-07-29T14:40:37;28.20;57.30
5346;DHT22;2695;49.444;11.054;2022-07-29T14:43:06;28.10;57.80
5346;DHT22;2695;49.444;11.054;2022-07-29T14:45:34;28.00;57.80
5346;DHT22;2695;49.444;11.054;2022-07-29T14:48:02;28.00;58.70
5346;DHT22;2695;49.444;11.054;2022-07-29T14:50:30;28.10;59.00
5346;DHT22;2695;49.444;11.054;2022-07-29T14:52:58;28.00;59.90
5346;DHT22;2695;49.444;11.054;2022-07-29T14:55:29;28.10;59.60
5346;DHT22;2695;49.444;11.054;2022-07-29T14:57:58;28.10;58.80
5346;DHT22;2695;49.444;11.054;2022-07-29T15:00:36;28.20;58.80
5346;DHT22;2695;49.444;11.054;2022-07-29T15:03:04;28.40;58.50
5346;DHT22;2695;49.444;11.054;2022-07-29T15:05:37;28.60;57.50
5346;DHT22;2695;49.444;11.054;2022-07-29T15:08:05;28.90;56.50
5346;DHT22;2695;49.444;11.054;2022-07-29T15:10:36;29.20;55.90
5346;DHT22;2695;49.444;11.054;2022-07-29T15:13:04;29.40;55.50
5346;DHT22;2695;49.444;11.054;2022-07-29T15:15:32;29.50;55.20
5346;DHT22;2695;49.444;11.054;2022-07-29T15:18:00;29.50;55.20
5346;DHT22;2695;49.444;11.054;2022-07-29T15:20:28;29.50;55.20
5346;DHT22;2695;49.444;11.054;2022-07-29T15:22:56;29.40;55.20
5346;DHT22;2695;49.444;11.054;2022-07-29T15:25:24;29.50;55.10
5346;DHT22;2695;49.444;11.054;2022-07-29T15:27:55;29.40;55.30
5346;DHT22;2695;49.444;11.054;2022-07-29T15:30:27;29.30;55.30
5346;DHT22;2695;49.444;11.054;2022-07-29T15:33:00;29.20;56.10
5346;DHT22;2695;49.444;11.054;2022-07-29T15:35:28;29.00;57.00
5346;DHT22;2695;49.444;11.054;2022-07-29T15:37:57;28.80;57.50
5346;DHT22;2695;49.444;11.054;2022-07-29T15:40:25;28.60;58.20
5346;DHT22;2695;49.444;11.054;2022-07-29T15:42:55;28.50;58.60
5346;DHT22;2695;49.444;11.054;2022-07-29T15:45:24;28.50;58.70
5346;DHT22;2695;49.444;11.054;2022-07-29T15:47:58;28.40;59.00
5346;DHT22;2695;49.444;11.054;2022-07-29T15:50:26;28.30;60.10
5346;DHT22;2695;49.444;11.054;2022-07-29T15:52:54;28.10;60.30
5346;DHT22;2695;49.444;11.054;2022-07-29T15:55:22;28.00;61.00
5346;DHT22;2695;49.444;11.054;2022-07-29T15:57:50;27.90;62.90
5346;DHT22;2695;49.444;11.054;2022-07-29T16:00:27;27.70;65.80
5346;DHT22;2695;49.444;11.054;2022-07-29T16:02:55;27.50;69.60
5346;DHT22;2695;49.444;11.054;2022-07-29T16:05:23;27.30;71.70
5346;DHT22;2695;49.444;11.054;2022-07-29T16:07:51;27.20;73.90
5346;DHT22;2695;49.444;11.054;2022-07-29T16:10:19;27.00;77.70
5346;DHT22;2695;49.444;11.054;2022-07-29T16:12:47;26.80;78.50
5346;DHT22;2695;49.444;11.054;2022-07-29T16:15:15;26.60;79.70